Airport View

Enter AWOS ICAO identifier for current METAR.

ex. KFNL

KPWT 192056Z AUTO VRB06KT 10SM BKN035 21/12 A3003 RMK AO2 SLP183 6//// T02060122 55001

19 Aug 2019 21:38

Frequency: 121.2

Phone: 360-674-2811

Other Area AWOS: KTIW - KSEA - KBFI - KSHN

TAF KPWT 191732Z 1918/2018 VRB03KT P6SM SCT006 OVC012 FM191900 VRB03KT P6SM SCT015 BKN025 FM192200 02006KT P6SM FEW040 FM200500 18004KT P6SM FEW250